sensor_id;sensor_type;location;lat;lon;timestamp;pressure;altitude;pressure_sealevel;temperature;humidity
71105;BME280;58760;48.716;8.962;2022-11-15T00:00:33;96286.16;;;7.54;88.47
71105;BME280;58760;48.716;8.962;2022-11-15T00:02:58;96288.44;;;7.41;89.04
71105;BME280;58760;48.716;8.962;2022-11-15T00:05:23;96274.53;;;7.38;89.59
71105;BME280;58760;48.716;8.962;2022-11-15T00:07:49;96279.81;;;7.38;89.41
71105;BME280;58760;48.716;8.962;2022-11-15T00:10:15;96278.00;;;7.31;89.28
71105;BME280;58760;48.716;8.962;2022-11-15T00:12:41;96268.09;;;7.33;89.42
71105;BME280;58760;48.716;8.962;2022-11-15T00:15:07;96268.59;;;7.36;89.51
71105;BME280;58760;48.716;8.962;2022-11-15T00:17:32;96270.41;;;7.28;89.46
71105;BME280;58760;48.716;8.962;2022-11-15T00:19:58;96275.44;;;7.13;89.75
71105;BME280;58760;48.716;8.962;2022-11-15T00:22:23;96272.78;;;7.05;90.23
71105;BME280;58760;48.716;8.962;2022-11-15T00:24:48;96271.09;;;7.04;90.70
71105;BME280;58760;48.716;8.962;2022-11-15T00:27:14;96273.44;;;7.07;90.28
71105;BME280;58760;48.716;8.962;2022-11-15T00:29:40;96272.88;;;6.96;90.02
71105;BME280;58760;48.716;8.962;2022-11-15T00:32:09;96265.53;;;6.81;90.52
71105;BME280;58760;48.716;8.962;2022-11-15T00:34:35;96264.38;;;6.76;90.67
71105;BME280;58760;48.716;8.962;2022-11-15T00:37:00;96257.69;;;6.64;91.24
71105;BME280;58760;48.716;8.962;2022-11-15T00:39:26;96258.63;;;6.55;91.91
71105;BME280;58760;48.716;8.962;2022-11-15T00:41:51;96261.72;;;6.50;91.96
71105;BME280;58760;48.716;8.962;2022-11-15T00:44:17;96266.78;;;6.44;92.13
71105;BME280;58760;48.716;8.962;2022-11-15T00:46:42;96264.09;;;6.36;92.50
71105;BME280;58760;48.716;8.962;2022-11-15T00:49:07;96254.81;;;6.31;93.00
71105;BME280;58760;48.716;8.962;2022-11-15T00:51:33;96257.75;;;6.28;93.06
71105;BME280;58760;48.716;8.962;2022-11-15T00:53:58;96257.41;;;6.23;93.59
71105;BME280;58760;48.716;8.962;2022-11-15T00:56:23;96255.91;;;6.21;94.07
71105;BME280;58760;48.716;8.962;2022-11-15T00:58:49;96247.00;;;6.22;94.41
71105;BME280;58760;48.716;8.962;2022-11-15T01:01:14;96251.44;;;6.21;94.50
71105;BME280;58760;48.716;8.962;2022-11-15T01:03:40;96237.81;;;6.26;94.51
71105;BME280;58760;48.716;8.962;2022-11-15T01:06:07;96242.78;;;6.29;94.48
71105;BME280;58760;48.716;8.962;2022-11-15T01:08:33;96246.78;;;6.33;94.46
71105;BME280;58760;48.716;8.962;2022-11-15T01:11:07;96242.28;;;6.51;94.22
71105;BME280;58760;48.716;8.962;2022-11-15T01:13:34;96240.22;;;6.63;93.33
71105;BME280;58760;48.716;8.962;2022-11-15T01:16:06;96233.63;;;6.67;92.64
71105;BME280;58760;48.716;8.962;2022-11-15T01:18:31;96230.81;;;6.60;91.95
71105;BME280;58760;48.716;8.962;2022-11-15T01:20:57;96221.56;;;6.56;92.21
71105;BME280;58760;48.716;8.962;2022-11-15T01:23:22;96229.31;;;6.58;92.53
71105;BME280;58760;48.716;8.962;2022-11-15T01:25:47;96228.13;;;6.52;92.54
71105;BME280;58760;48.716;8.962;2022-11-15T01:28:13;96225.81;;;6.49;92.39
71105;BME280;58760;48.716;8.962;2022-11-15T01:30:38;96222.97;;;6.43;92.78
71105;BME280;58760;48.716;8.962;2022-11-15T01:33:04;96221.31;;;6.42;93.22
71105;BME280;58760;48.716;8.962;2022-11-15T01:35:29;96219.28;;;6.36;93.17
71105;BME280;58760;48.716;8.962;2022-11-15T01:37:54;96209.19;;;6.31;93.82
71105;BME280;58760;48.716;8.962;2022-11-15T01:40:20;96218.94;;;6.30;94.34
71105;BME280;58760;48.716;8.962;2022-11-15T01:42:45;96211.38;;;6.36;94.77
71105;BME280;58760;48.716;8.962;2022-11-15T01:45:15;96213.56;;;6.40;94.88
71105;BME280;58760;48.716;8.962;2022-11-15T01:47:48;96210.44;;;6.45;94.78
71105;BME280;58760;48.716;8.962;2022-11-15T01:50:19;96213.91;;;6.45;94.67
71105;BME280;58760;48.716;8.962;2022-11-15T01:52:47;96210.66;;;6.51;94.89
71105;BME280;58760;48.716;8.962;2022-11-15T01:57:40;96205.59;;;6.58;94.36
71105;BME280;58760;48.716;8.962;2022-11-15T02:00:07;96212.88;;;6.64;94.50
71105;BME280;58760;48.716;8.962;2022-11-15T02:02:35;96207.44;;;6.65;94.33
71105;BME280;58760;48.716;8.962;2022-11-15T02:05:02;96201.75;;;6.78;94.18
71105;BME280;58760;48.716;8.962;2022-11-15T02:07:28;96198.53;;;6.92;93.17
71105;BME280;58760;48.716;8.962;2022-11-15T02:09:57;96198.03;;;6.97;92.41
71105;BME280;58760;48.716;8.962;2022-11-15T02:12:24;96189.97;;;6.98;92.12
71105;BME280;58760;48.716;8.962;2022-11-15T02:14:53;96188.00;;;7.00;91.59
71105;BME280;58760;48.716;8.962;2022-11-15T02:28:57;96167.22;;;6.97;92.16
71105;BME280;58760;48.716;8.962;2022-11-15T02:37:07;96175.00;;;7.07;91.44
71105;BME280;58760;48.716;8.962;2022-11-15T02:39:46;96168.75;;;7.16;90.13
71105;BME280;58760;48.716;8.962;2022-11-15T02:42:39;96163.28;;;7.09;90.69
71105;BME280;58760;48.716;8.962;2022-11-15T02:45:29;96166.41;;;7.05;91.48
71105;BME280;58760;48.716;8.962;2022-11-15T02:47:58;96154.84;;;6.98;91.80
71105;BME280;58760;48.716;8.962;2022-11-15T02:50:28;96154.50;;;6.93;92.81
71105;BME280;58760;48.716;8.962;2022-11-15T02:52:54;96150.53;;;6.89;93.28
71105;BME280;58760;48.716;8.962;2022-11-15T02:55:42;96154.31;;;6.86;93.92
71105;BME280;58760;48.716;8.962;2022-11-15T03:00:59;96150.88;;;6.86;93.90
71105;BME280;58760;48.716;8.962;2022-11-15T03:11:50;96130.56;;;6.86;93.11
71105;BME280;58760;48.716;8.962;2022-11-15T03:14:25;96121.16;;;6.83;93.46
71105;BME280;58760;48.716;8.962;2022-11-15T03:20:01;96128.44;;;6.81;93.76
71105;BME280;58760;48.716;8.962;2022-11-15T03:22:30;96129.56;;;6.79;94.04
71105;BME280;58760;48.716;8.962;2022-11-15T03:25:00;96124.31;;;6.79;94.79
71105;BME280;58760;48.716;8.962;2022-11-15T03:27:38;96126.09;;;6.78;94.72
71105;BME280;58760;48.716;8.962;2022-11-15T03:30:07;96115.56;;;6.78;94.46
71105;BME280;58760;48.716;8.962;2022-11-15T03:32:46;96107.47;;;6.80;94.06
71105;BME280;58760;48.716;8.962;2022-11-15T03:35:15;96117.50;;;6.76;94.12
71105;BME280;58760;48.716;8.962;2022-11-15T03:40:11;96116.44;;;6.95;92.54
71105;BME280;58760;48.716;8.962;2022-11-15T03:43:17;96112.16;;;6.94;92.70
71105;BME280;58760;48.716;8.962;2022-11-15T03:46:02;96112.63;;;6.90;92.83
71105;BME280;58760;48.716;8.962;2022-11-15T03:48:35;96110.97;;;6.89;92.90
71105;BME280;58760;48.716;8.962;2022-11-15T03:51:03;96114.44;;;6.89;93.14
71105;BME280;58760;48.716;8.962;2022-11-15T03:53:29;96111.97;;;6.88;93.43
71105;BME280;58760;48.716;8.962;2022-11-15T03:55:55;96104.69;;;6.90;93.01
71105;BME280;58760;48.716;8.962;2022-11-15T03:58:21;96108.84;;;6.92;92.95
71105;BME280;58760;48.716;8.962;2022-11-15T04:00:46;96111.00;;;6.97;92.61
71105;BME280;58760;48.716;8.962;2022-11-15T04:03:11;96103.91;;;6.97;91.90
71105;BME280;58760;48.716;8.962;2022-11-15T04:05:37;96097.84;;;7.05;91.97
71105;BME280;58760;48.716;8.962;2022-11-15T04:08:02;96083.97;;;7.03;92.48
71105;BME280;58760;48.716;8.962;2022-11-15T04:10:27;96087.09;;;7.06;92.51
71105;BME280;58760;48.716;8.962;2022-11-15T04:12:53;96097.00;;;7.04;92.09
71105;BME280;58760;48.716;8.962;2022-11-15T04:15:22;96095.03;;;7.06;92.00
71105;BME280;58760;48.716;8.962;2022-11-15T04:17:50;96093.56;;;7.12;92.03
71105;BME280;58760;48.716;8.962;2022-11-15T04:20:22;96094.38;;;7.12;91.93
71105;BME280;58760;48.716;8.962;2022-11-15T04:23:09;96098.84;;;7.12;92.17
71105;BME280;58760;48.716;8.962;2022-11-15T04:25:55;96096.84;;;7.14;92.06
71105;BME280;58760;48.716;8.962;2022-11-15T04:28:22;96104.59;;;7.15;91.85
71105;BME280;58760;48.716;8.962;2022-11-15T04:30:47;96094.88;;;7.16;91.70
71105;BME280;58760;48.716;8.962;2022-11-15T04:33:13;96093.06;;;7.16;92.22
71105;BME280;58760;48.716;8.962;2022-11-15T04:35:39;96097.00;;;7.12;92.96
71105;BME280;58760;48.716;8.962;2022-11-15T04:38:06;96095.84;;;7.07;92.33
71105;BME280;58760;48.716;8.962;2022-11-15T04:40:31;96084.47;;;7.06;92.26
71105;BME280;58760;48.716;8.962;2022-11-15T04:42:57;96080.19;;;7.05;91.44
71105;BME280;58760;48.716;8.962;2022-11-15T04:45:22;96078.69;;;7.03;91.11
71105;BME280;58760;48.716;8.962;2022-11-15T04:47:48;96090.91;;;7.04;90.88
71105;BME280;58760;48.716;8.962;2022-11-15T04:50:14;96085.94;;;7.09;91.33
71105;BME280;58760;48.716;8.962;2022-11-15T04:52:50;96084.31;;;7.08;90.90
71105;BME280;58760;48.716;8.962;2022-11-15T04:55:16;96082.00;;;7.05;91.04
71105;BME280;58760;48.716;8.962;2022-11-15T04:57:42;96082.50;;;7.08;90.85
71105;BME280;58760;48.716;8.962;2022-11-15T05:00:10;96068.31;;;7.01;90.77
71105;BME280;58760;48.716;8.962;2022-11-15T05:02:36;96066.66;;;6.92;91.17
71105;BME280;58760;48.716;8.962;2022-11-15T05:05:20;96055.09;;;6.85;92.14
71105;BME280;58760;48.716;8.962;2022-11-15T05:07:45;96063.84;;;6.86;92.68
71105;BME280;58760;48.716;8.962;2022-11-15T05:10:11;96064.03;;;6.92;92.05
71105;BME280;58760;48.716;8.962;2022-11-15T05:12:36;96063.19;;;6.92;92.03
71105;BME280;58760;48.716;8.962;2022-11-15T05:15:02;96061.72;;;6.97;91.74
71105;BME280;58760;48.716;8.962;2022-11-15T05:17:28;96051.16;;;6.97;92.05
71105;BME280;58760;48.716;8.962;2022-11-15T05:19:53;96056.63;;;6.96;92.13
71105;BME280;58760;48.716;8.962;2022-11-15T05:22:19;96056.78;;;7.02;92.05
71105;BME280;58760;48.716;8.962;2022-11-15T05:24:44;96054.63;;;6.98;91.41
71105;BME280;58760;48.716;8.962;2022-11-15T05:27:10;96059.91;;;7.06;91.44
71105;BME280;58760;48.716;8.962;2022-11-15T05:29:35;96059.91;;;7.14;90.29
71105;BME280;58760;48.716;8.962;2022-11-15T05:32:00;96053.81;;;7.13;89.84
71105;BME280;58760;48.716;8.962;2022-11-15T05:34:26;96055.47;;;6.98;90.70
71105;BME280;58760;48.716;8.962;2022-11-15T05:36:52;96053.78;;;6.89;91.10
71105;BME280;58760;48.716;8.962;2022-11-15T05:39:17;96054.91;;;6.87;91.85
71105;BME280;58760;48.716;8.962;2022-11-15T05:41:47;96042.25;;;6.82;92.09
71105;BME280;58760;48.716;8.962;2022-11-15T05:44:16;96042.19;;;6.74;92.41
71105;BME280;58760;48.716;8.962;2022-11-15T05:46:43;96045.34;;;6.69;92.30
71105;BME280;58760;48.716;8.962;2022-11-15T05:49:12;96044.34;;;6.70;92.08
71105;BME280;58760;48.716;8.962;2022-11-15T05:51:41;96041.06;;;6.76;91.40
71105;BME280;58760;48.716;8.962;2022-11-15T05:54:10;96032.16;;;6.69;91.57
71105;BME280;58760;48.716;8.962;2022-11-15T05:56:35;96025.69;;;6.56;91.70
71105;BME280;58760;48.716;8.962;2022-11-15T05:59:01;96033.88;;;6.37;91.92
71105;BME280;58760;48.716;8.962;2022-11-15T06:01:27;96040.75;;;6.29;93.01
71105;BME280;58760;48.716;8.962;2022-11-15T06:03:53;96042.53;;;6.21;93.41
71105;BME280;58760;48.716;8.962;2022-11-15T06:06:18;96040.06;;;6.27;94.05
71105;BME280;58760;48.716;8.962;2022-11-15T06:08:43;96037.41;;;6.19;93.36
71105;BME280;58760;48.716;8.962;2022-11-15T06:11:09;96036.44;;;6.20;93.85
71105;BME280;58760;48.716;8.962;2022-11-15T06:13:34;96041.72;;;6.20;93.46
71105;BME280;58760;48.716;8.962;2022-11-15T06:16:00;96043.50;;;6.20;93.75
71105;BME280;58760;48.716;8.962;2022-11-15T06:18:25;96043.00;;;6.16;94.14
71105;BME280;58760;48.716;8.962;2022-11-15T06:20:51;96034.72;;;6.11;94.60
71105;BME280;58760;48.716;8.962;2022-11-15T06:23:19;96043.94;;;6.07;94.62
71105;BME280;58760;48.716;8.962;2022-11-15T06:25:45;96052.97;;;6.05;94.84
71105;BME280;58760;48.716;8.962;2022-11-15T06:28:10;96058.06;;;5.98;94.85
71105;BME280;58760;48.716;8.962;2022-11-15T06:30:35;96054.59;;;5.98;95.30
71105;BME280;58760;48.716;8.962;2022-11-15T06:33:03;96051.78;;;5.99;95.53
71105;BME280;58760;48.716;8.962;2022-11-15T06:35:29;96050.81;;;6.00;95.94
71105;BME280;58760;48.716;8.962;2022-11-15T06:37:55;96051.84;;;6.07;96.32
71105;BME280;58760;48.716;8.962;2022-11-15T06:40:21;96047.44;;;6.16;96.14
71105;BME280;58760;48.716;8.962;2022-11-15T06:42:46;96045.00;;;6.22;96.04
71105;BME280;58760;48.716;8.962;2022-11-15T06:45:11;96050.81;;;6.34;96.08
71105;BME280;58760;48.716;8.962;2022-11-15T06:47:47;96044.44;;;6.45;95.57
71105;BME280;58760;48.716;8.962;2022-11-15T06:50:13;96053.03;;;6.55;95.17
71105;BME280;58760;48.716;8.962;2022-11-15T06:52:38;96056.03;;;6.60;94.55
71105;BME280;58760;48.716;8.962;2022-11-15T06:55:04;96061.47;;;6.66;94.14
71105;BME280;58760;48.716;8.962;2022-11-15T06:57:29;96062.66;;;6.72;93.61
71105;BME280;58760;48.716;8.962;2022-11-15T06:59:55;96070.75;;;6.78;92.62
71105;BME280;58760;48.716;8.962;2022-11-15T07:02:20;96062.81;;;6.87;92.17
71105;BME280;58760;48.716;8.962;2022-11-15T07:04:45;96068.78;;;6.89;92.04
71105;BME280;58760;48.716;8.962;2022-11-15T07:07:11;96066.31;;;6.95;92.05
71105;BME280;58760;48.716;8.962;2022-11-15T07:09:36;96069.47;;;6.99;91.06
71105;BME280;58760;48.716;8.962;2022-11-15T07:12:01;96067.34;;;7.02;91.13
71105;BME280;58760;48.716;8.962;2022-11-15T07:14:27;96066.31;;;7.03;91.36
71105;BME280;58760;48.716;8.962;2022-11-15T07:16:52;96065.03;;;7.07;91.66
71105;BME280;58760;48.716;8.962;2022-11-15T07:19:18;96062.38;;;7.15;91.37
71105;BME280;58760;48.716;8.962;2022-11-15T07:21:43;96066.69;;;7.24;91.35
71105;BME280;58760;48.716;8.962;2022-11-15T07:24:08;96064.22;;;7.39;90.69
71105;BME280;58760;48.716;8.962;2022-11-15T07:26:34;96057.44;;;7.45;90.41
71105;BME280;58760;48.716;8.962;2022-11-15T07:28:59;96054.81;;;7.53;89.79
71105;BME280;58760;48.716;8.962;2022-11-15T07:31:24;96058.75;;;7.65;89.79
71105;BME280;58760;48.716;8.962;2022-11-15T07:33:50;96061.91;;;7.76;89.72
71105;BME280;58760;48.716;8.962;2022-11-15T07:36:16;96048.84;;;7.83;88.85
71105;BME280;58760;48.716;8.962;2022-11-15T07:38:41;96037.44;;;7.90;88.77
71105;BME280;58760;48.716;8.962;2022-11-15T07:41:07;96035.78;;;7.98;89.29
71105;BME280;58760;48.716;8.962;2022-11-15T07:43:33;96037.72;;;8.04;89.15
71105;BME280;58760;48.716;8.962;2022-11-15T07:46:04;96048.75;;;8.23;87.75
71105;BME280;58760;48.716;8.962;2022-11-15T07:48:30;96044.78;;;8.27;86.40
71105;BME280;58760;48.716;8.962;2022-11-15T07:50:55;96033.72;;;8.24;86.57
71105;BME280;58760;48.716;8.962;2022-11-15T07:53:21;96042.97;;;8.20;87.22
71105;BME280;58760;48.716;8.962;2022-11-15T07:55:46;96029.13;;;8.18;87.73
71105;BME280;58760;48.716;8.962;2022-11-15T07:58:13;96043.50;;;8.15;88.52
71105;BME280;58760;48.716;8.962;2022-11-15T08:00:38;96044.97;;;8.18;88.18
71105;BME280;58760;48.716;8.962;2022-11-15T08:03:12;96044.53;;;8.53;85.41
71105;BME280;58760;48.716;8.962;2022-11-15T08:05:38;96044.59;;;8.37;86.50
71105;BME280;58760;48.716;8.962;2022-11-15T08:08:04;96040.16;;;8.37;87.32
71105;BME280;58760;48.716;8.962;2022-11-15T08:10:31;96040.94;;;8.46;86.87
71105;BME280;58760;48.716;8.962;2022-11-15T08:13:00;96038.75;;;8.58;86.73
71105;BME280;58760;48.716;8.962;2022-11-15T08:15:27;96034.03;;;8.99;85.42
71105;BME280;58760;48.716;8.962;2022-11-15T08:17:57;96046.81;;;9.18;84.24
71105;BME280;58760;48.716;8.962;2022-11-15T08:20:23;96032.59;;;9.19;84.80
71105;BME280;58760;48.716;8.962;2022-11-15T08:22:49;96031.72;;;9.26;84.70
71105;BME280;58760;48.716;8.962;2022-11-15T08:25:14;96027.41;;;9.63;83.49
71105;BME280;58760;48.716;8.962;2022-11-15T08:27:40;96023.91;;;9.85;82.15
71105;BME280;58760;48.716;8.962;2022-11-15T08:30:06;96015.06;;;10.07;80.68
71105;BME280;58760;48.716;8.962;2022-11-15T08:32:31;96019.63;;;10.13;79.79
71105;BME280;58760;48.716;8.962;2022-11-15T08:34:57;96019.94;;;10.18;79.18
71105;BME280;58760;48.716;8.962;2022-11-15T08:37:22;96014.91;;;10.23;79.35
71105;BME280;58760;48.716;8.962;2022-11-15T08:39:47;96013.06;;;10.38;78.72
71105;BME280;58760;48.716;8.962;2022-11-15T08:42:13;96004.47;;;10.22;79.31
71105;BME280;58760;48.716;8.962;2022-11-15T08:44:39;96007.75;;;10.38;79.32
71105;BME280;58760;48.716;8.962;2022-11-15T08:47:05;96006.47;;;10.49;79.19
71105;BME280;58760;48.716;8.962;2022-11-15T08:49:30;95999.88;;;10.60;78.84
71105;BME280;58760;48.716;8.962;2022-11-15T08:51:55;96001.63;;;10.38;79.35
71105;BME280;58760;48.716;8.962;2022-11-15T08:54:21;95996.88;;;10.48;78.98
71105;BME280;58760;48.716;8.962;2022-11-15T08:56:46;95996.50;;;10.51;79.81
71105;BME280;58760;48.716;8.962;2022-11-15T08:59:12;95988.06;;;10.62;79.88
71105;BME280;58760;48.716;8.962;2022-11-15T09:01:37;95993.84;;;10.66;79.40
71105;BME280;58760;48.716;8.962;2022-11-15T09:04:02;95985.00;;;10.80;77.76
71105;BME280;58760;48.716;8.962;2022-11-15T09:06:29;95992.28;;;10.92;77.27
71105;BME280;58760;48.716;8.962;2022-11-15T09:08:54;95992.94;;;10.80;77.34
71105;BME280;58760;48.716;8.962;2022-11-15T09:11:20;95984.31;;;10.92;77.09
71105;BME280;58760;48.716;8.962;2022-11-15T09:13:47;95986.28;;;10.84;77.36
71105;BME280;58760;48.716;8.962;2022-11-15T09:16:12;95986.72;;;10.87;77.79
71105;BME280;58760;48.716;8.962;2022-11-15T09:18:38;95992.03;;;10.87;78.11
71105;BME280;58760;48.716;8.962;2022-11-15T09:21:03;95983.63;;;10.84;79.24
71105;BME280;58760;48.716;8.962;2022-11-15T09:23:29;95989.19;;;10.89;78.68
71105;BME280;58760;48.716;8.962;2022-11-15T09:26:02;95983.88;;;10.89;79.23
71105;BME280;58760;48.716;8.962;2022-11-15T09:28:28;95980.34;;;11.03;79.07
71105;BME280;58760;48.716;8.962;2022-11-15T09:31:03;95978.47;;;11.18;77.70
71105;BME280;58760;48.716;8.962;2022-11-15T09:33:28;95972.63;;;11.29;77.24
71105;BME280;58760;48.716;8.962;2022-11-15T09:35:54;95973.63;;;11.49;76.80
71105;BME280;58760;48.716;8.962;2022-11-15T09:38:24;95974.13;;;11.60;76.02
71105;BME280;58760;48.716;8.962;2022-11-15T09:40:53;95979.66;;;11.65;77.87
71105;BME280;58760;48.716;8.962;2022-11-15T09:46:19;95973.47;;;11.79;77.66
71105;BME280;58760;48.716;8.962;2022-11-15T09:48:51;95967.25;;;11.93;76.59
71105;BME280;58760;48.716;8.962;2022-11-15T09:51:35;95967.25;;;11.93;75.34
71105;BME280;58760;48.716;8.962;2022-11-15T09:54:11;95973.59;;;11.98;74.70
71105;BME280;58760;48.716;8.962;2022-11-15T09:56:42;95971.78;;;11.99;74.12
71105;BME280;58760;48.716;8.962;2022-11-15T09:59:44;95963.97;;;11.97;74.21
71105;BME280;58760;48.716;8.962;2022-11-15T10:04:43;95962.22;;;12.11;74.36
71105;BME280;58760;48.716;8.962;2022-11-15T10:07:31;95954.63;;;12.08;74.45
71105;BME280;58760;48.716;8.962;2022-11-15T10:10:04;95959.81;;;12.23;74.07
71105;BME280;58760;48.716;8.962;2022-11-15T10:12:34;95956.75;;;12.19;74.97
71105;BME280;58760;48.716;8.962;2022-11-15T10:15:03;95955.16;;;12.31;74.16
71105;BME280;58760;48.716;8.962;2022-11-15T10:17:55;95953.31;;;12.25;73.45
71105;BME280;58760;48.716;8.962;2022-11-15T10:20:29;95950.16;;;12.09;73.54
71105;BME280;58760;48.716;8.962;2022-11-15T10:23:05;95941.59;;;12.20;75.50
71105;BME280;58760;48.716;8.962;2022-11-15T10:25:33;95936.31;;;12.26;74.89
71105;BME280;58760;48.716;8.962;2022-11-15T10:30:49;95930.59;;;12.29;74.63
71105;BME280;58760;48.716;8.962;2022-11-15T10:38:51;95927.38;;;12.40;74.12
71105;BME280;58760;48.716;8.962;2022-11-15T10:46:38;95913.47;;;12.45;74.69
71105;BME280;58760;48.716;8.962;2022-11-15T10:49:22;95909.34;;;12.42;74.83
71105;BME280;58760;48.716;8.962;2022-11-15T10:51:49;95913.66;;;12.43;74.83
71105;BME280;58760;48.716;8.962;2022-11-15T10:54:22;95911.84;;;12.44;73.76
71105;BME280;58760;48.716;8.962;2022-11-15T10:56:51;95903.25;;;12.48;74.81
71105;BME280;58760;48.716;8.962;2022-11-15T10:59:24;95910.59;;;12.46;74.83
71105;BME280;58760;48.716;8.962;2022-11-15T11:01:51;95901.84;;;12.59;74.25
71105;BME280;58760;48.716;8.962;2022-11-15T11:04:16;95894.69;;;12.66;73.32
71105;BME280;58760;48.716;8.962;2022-11-15T11:06:55;95895.31;;;12.75;72.86
71105;BME280;58760;48.716;8.962;2022-11-15T11:09:32;95900.81;;;12.60;73.27
71105;BME280;58760;48.716;8.962;2022-11-15T11:11:58;95897.59;;;12.78;73.15
71105;BME280;58760;48.716;8.962;2022-11-15T11:14:25;95888.34;;;12.61;72.99
71105;BME280;58760;48.716;8.962;2022-11-15T11:19:36;95885.88;;;12.66;74.14
71105;BME280;58760;48.716;8.962;2022-11-15T11:22:21;95884.91;;;12.93;73.13
71105;BME280;58760;48.716;8.962;2022-11-15T11:24:56;95881.41;;;12.86;73.81
71105;BME280;58760;48.716;8.962;2022-11-15T11:27:30;95868.50;;;12.83;73.46
71105;BME280;58760;48.716;8.962;2022-11-15T11:33:12;95868.13;;;12.92;74.41
71105;BME280;58760;48.716;8.962;2022-11-15T11:36:03;95861.56;;;13.01;74.27
71105;BME280;58760;48.716;8.962;2022-11-15T11:39:00;95849.28;;;13.00;73.64
71105;BME280;58760;48.716;8.962;2022-11-15T11:41:50;95852.78;;;13.21;74.69
71105;BME280;58760;48.716;8.962;2022-11-15T11:47:00;95841.44;;;13.71;71.60
71105;BME280;58760;48.716;8.962;2022-11-15T11:52:08;95833.03;;;13.74;72.41
71105;BME280;58760;48.716;8.962;2022-11-15T11:54:46;95839.78;;;13.77;71.45
71105;BME280;58760;48.716;8.962;2022-11-15T12:02:44;95825.88;;;13.61;72.94
71105;BME280;58760;48.716;8.962;2022-11-15T12:05:24;95823.84;;;13.57;72.62
71105;BME280;58760;48.716;8.962;2022-11-15T12:07:54;95816.03;;;13.62;72.70
71105;BME280;58760;48.716;8.962;2022-11-15T12:10:29;95816.00;;;13.75;72.96
71105;BME280;58760;48.716;8.962;2022-11-15T12:13:04;95824.47;;;13.59;72.67
71105;BME280;58760;48.716;8.962;2022-11-15T12:15:36;95814.84;;;13.38;73.33
71105;BME280;58760;48.716;8.962;2022-11-15T12:18:04;95817.94;;;13.35;73.45
71105;BME280;58760;48.716;8.962;2022-11-15T12:20:37;95817.72;;;13.30;72.41
71105;BME280;58760;48.716;8.962;2022-11-15T12:23:11;95812.78;;;13.47;72.37
71105;BME280;58760;48.716;8.962;2022-11-15T12:25:46;95803.22;;;13.13;73.25
71105;BME280;58760;48.716;8.962;2022-11-15T12:31:14;95792.72;;;12.98;75.04
71105;BME280;58760;48.716;8.962;2022-11-15T12:33:43;95803.78;;;13.02;75.16
71105;BME280;58760;48.716;8.962;2022-11-15T12:36:30;95797.47;;;13.09;74.71
71105;BME280;58760;48.716;8.962;2022-11-15T12:39:08;95802.56;;;13.18;74.48
71105;BME280;58760;48.716;8.962;2022-11-15T12:41:39;95795.22;;;13.13;74.80
71105;BME280;58760;48.716;8.962;2022-11-15T12:44:15;95796.00;;;13.07;75.72
71105;BME280;58760;48.716;8.962;2022-11-15T13:00:48;95782.31;;;13.23;74.32
71105;BME280;58760;48.716;8.962;2022-11-15T13:02:43;95781.22;;;13.37;74.19
71105;BME280;58760;48.716;8.962;2022-11-15T13:17:49;95744.75;;;13.31;76.07
71105;BME280;58760;48.716;8.962;2022-11-15T13:22:50;95739.84;;;13.28;76.26
71105;BME280;58760;48.716;8.962;2022-11-15T13:27:57;95737.41;;;13.20;77.21
71105;BME280;58760;48.716;8.962;2022-11-15T13:30:25;95732.88;;;13.21;77.32
71105;BME280;58760;48.716;8.962;2022-11-15T13:32:52;95731.69;;;13.23;77.77
71105;BME280;58760;48.716;8.962;2022-11-15T13:35:21;95729.00;;;13.23;78.03
71105;BME280;58760;48.716;8.962;2022-11-15T13:37:47;95720.81;;;13.18;78.72
71105;BME280;58760;48.716;8.962;2022-11-15T13:40:18;95723.06;;;13.08;80.17
71105;BME280;58760;48.716;8.962;2022-11-15T13:42:45;95713.25;;;13.02;79.71
71105;BME280;58760;48.716;8.962;2022-11-15T13:45:13;95712.66;;;12.93;79.45
71105;BME280;58760;48.716;8.962;2022-11-15T13:47:40;95711.19;;;12.91;80.23
71105;BME280;58760;48.716;8.962;2022-11-15T13:50:06;95701.19;;;12.93;80.34
71105;BME280;58760;48.716;8.962;2022-11-15T13:52:36;95691.56;;;12.85;80.74
71105;BME280;58760;48.716;8.962;2022-11-15T13:55:17;95692.59;;;12.78;82.20
71105;BME280;58760;48.716;8.962;2022-11-15T13:57:45;95696.06;;;12.72;81.13
71105;BME280;58760;48.716;8.962;2022-11-15T14:03:19;95691.38;;;12.67;83.19
71105;BME280;58760;48.716;8.962;2022-11-15T14:06:08;95678.25;;;12.72;81.66
71105;BME280;58760;48.716;8.962;2022-11-15T14:08:38;95681.72;;;12.86;79.89
71105;BME280;58760;48.716;8.962;2022-11-15T14:11:16;95680.88;;;12.92;79.89
71105;BME280;58760;48.716;8.962;2022-11-15T14:14:00;95675.56;;;12.92;79.74
71105;BME280;58760;48.716;8.962;2022-11-15T14:16:34;95669.22;;;12.93;79.37
71105;BME280;58760;48.716;8.962;2022-11-15T14:19:01;95667.56;;;12.92;79.61
71105;BME280;58760;48.716;8.962;2022-11-15T14:21:28;95664.31;;;12.90;79.60
71105;BME280;58760;48.716;8.962;2022-11-15T14:24:14;95658.38;;;12.81;79.14
71105;BME280;58760;48.716;8.962;2022-11-15T14:26:39;95655.50;;;12.83;78.56
71105;BME280;58760;48.716;8.962;2022-11-15T14:29:24;95654.09;;;12.80;77.85
71105;BME280;58760;48.716;8.962;2022-11-15T14:31:50;95644.28;;;12.74;78.82
71105;BME280;58760;48.716;8.962;2022-11-15T14:34:15;95650.03;;;12.65;79.31
71105;BME280;58760;48.716;8.962;2022-11-15T14:36:41;95641.84;;;12.59;78.88
71105;BME280;58760;48.716;8.962;2022-11-15T14:39:06;95643.25;;;12.55;78.97
71105;BME280;58760;48.716;8.962;2022-11-15T14:41:35;95635.91;;;12.51;79.79
71105;BME280;58760;48.716;8.962;2022-11-15T14:44:03;95631.00;;;12.48;79.80
71105;BME280;58760;48.716;8.962;2022-11-15T14:46:30;95635.53;;;12.41;81.58
71105;BME280;58760;48.716;8.962;2022-11-15T14:48:55;95630.38;;;12.46;80.09
71105;BME280;58760;48.716;8.962;2022-11-15T14:51:21;95626.31;;;12.43;80.51
71105;BME280;58760;48.716;8.962;2022-11-15T14:53:47;95622.00;;;12.36;81.37
71105;BME280;58760;48.716;8.962;2022-11-15T14:56:12;95620.38;;;12.35;80.83
71105;BME280;58760;48.716;8.962;2022-11-15T14:58:38;95626.13;;;12.32;81.15
71105;BME280;58760;48.716;8.962;2022-11-15T15:01:23;95620.78;;;12.32;80.94
71105;BME280;58760;48.716;8.962;2022-11-15T15:03:49;95622.41;;;12.39;80.45
71105;BME280;58760;48.716;8.962;2022-11-15T15:06:16;95617.09;;;12.26;81.26